Date,TemperatureHighF,TemperatureAvgF,TemperatureLowF,DewpointHighF,DewpointAvgF,DewpointLowF,HumidityHigh,HumidityAvg,HumidityLow,PressureMaxIn,PressureMinIn,WindSpeedMaxMPH,WindSpeedAvgMPH,GustSpeedMaxMPH,PrecipitationSumIn
2013-1-30,55,48,32,33,19,-100,82,36,20,30.22,30.08,5,2,9,0.00
2013-1-31,64,50,30,35,31,24,78,52,30,30.13,30.03,2,1,4,0.00
2013-2-1,70,49,32,35,30,25,77,52,21,30.18,30.07,4,1,5,0.00
2013-2-2,73,53,37,38,32,27,72,50,22,30.22,30.11,3,1,5,0.00
2013-2-3,69,58,48,39,35,30,59,44,23,30.17,30.01,3,1,6,0.00
2013-2-4,69,55,42,42,38,35,80,57,34,30.07,29.96,4,1,8,0.00
2013-2-5,73,55,41,45,40,36,86,61,30,30.05,29.94,4,1,6,0.00
2013-2-6,69,54,43,45,39,36,81,60,31,30.08,29.95,6,1,9,0.00
2013-2-7,68,53,39,42,38,35,87,61,34,30.11,29.97,7,1,9,0.00
2013-2-8,67,54,42,37,22,-100,73,42,16,29.98,29.79,8,3,12,0.00
2013-2-9,51,43,34,35,30,25,86,60,40,29.95,29.82,6,2,10,0.31
2013-2-10,55,42,29,33,26,23,83,57,31,29.95,29.84,6,1,8,0.01
2013-2-11,50,38,30,34,29,22,90,72,44,30.05,29.86,6,1,9,0.15
2013-2-12,50,38,27,36,28,24,91,70,39,30.13,29.99,6,1,9,0.01
2013-2-13,59,43,28,29,25,21,79,52,28,30.09,29.99,4,1,6,0.01
2013-2-14,63,47,32,34,28,24,78,51,25,30.10,29.98,4,1,7,0.00
2013-2-15,70,54,38,34,24,-100,64,37,13,30.25,30.10,6,2,10,0.00
2013-2-16,73,53,33,29,16,-100,57,30,11,30.24,29.99,4,1,5,0.00
2013-2-17,71,54,37,25,16,-100,47,27,10,30.02,29.88,7,2,10,0.00
2013-2-18,69,52,35,31,21,-100,60,35,12,30.06,29.89,4,1,7,0.00
2013-2-19,69,54,39,29,19,-100,49,29,12,29.96,29.71,10,4,16,0.00
2013-2-20,48,40,30,38,31,26,89,71,46,29.82,29.67,10,3,13,0.00
2013-2-21,50,40,28,38,32,25,90,75,53,29.92,29.80,3,0,5,0.00
2013-2-22,56,43,32,38,31,25,85,64,42,30.06,29.91,5,1,8,0.00
2013-2-23,62,45,30,34,27,24,83,54,24,30.05,29.78,5,1,9,0.00
2013-2-24,48,41,32,31,20,9,72,46,21,29.97,29.78,10,3,15,0.00
2013-2-25,58,42,28,25,19,15,69,42,24,30.09,29.95,4,1,8,0.00
2013-2-26,60,44,27,27,14,-100,74,41,17,30.04,29.88,5,1,8,0.00
2013-2-27,61,50,41,19,8,-100,40,19,12,30.16,30.04,6,3,9,0.00
2013-2-28,66,51,34,20,12,-100,41,24,13,30.26,30.13,5,2,8,0.00
2013-3-1,72,56,39,29,17,-100,40,24,14,30.30,30.19,6,2,9,0.00
2013-3-2,79,60,39,34,24,-100,59,34,15,30.30,30.15,3,1,6,0.00
2013-3-3,78,62,43,37,19,-100,57,28,11,30.19,29.96,7,2,11,0.00
2013-3-4,70,62,47,33,29,23,57,30,20,30.13,30.00,8,2,13,0.00
2013-3-5,77,58,40,38,26,-100,69,40,17,30.14,29.97,5,1,8,0.00
2013-3-6,78,63,48,39,27,-100,61,35,17,30.12,29.90,7,2,10,0.00
2013-3-7,77,61,45,35,26,-100,57,32,13,30.05,29.89,8,2,12,0.00
2013-3-8,63,54,41,48,38,27,82,57,29,30.03,29.83,11,4,17,0.28
2013-3-9,51,45,39,40,37,34,86,74,61,30.03,29.93,5,1,7,0.23
2013-3-10,61,51,41,42,36,29,79,58,31,30.14,30.01,7,2,10,0.01
2013-3-11,70,55,36,40,34,29,78,48,24,30.18,30.02,4,1,7,0.00
2013-3-12,78,59,40,41,37,30,76,47,22,30.16,30.03,4,1,6,0.00
2013-3-13,84,65,45,45,26,-100,70,37,15,30.24,30.04,3,1,5,0.00
2013-3-14,88,68,49,39,23,-100,51,28,11,30.26,30.11,4,1,7,0.00
2013-3-15,91,69,50,41,26,-100,51,29,6,30.20,29.94,9,2,12,0.00
2013-3-16,86,68,48,37,26,-100,51,27,7,30.09,29.89,8,2,13,0.00
2013-3-17,81,65,48,38,26,-100,50,28,11,30.04,29.87,9,2,13,0.00
2013-3-18,79,63,46,37,24,-100,52,29,11,30.10,29.93,6,1,11,0.00
2013-3-19,78,63,49,39,22,-100,55,32,17,30.14,29.97,6,2,9,0.00
2013-3-20,82,65,48,39,28,-100,56,33,15,30.14,29.91,5,1,7,0.00
2013-3-21,79,66,52,40,20,-100,54,31,20,30.02,29.76,5,1,8,0.00
2013-3-22,78,66,48,42,22,-100,55,30,17,29.95,29.73,8,2,12,0.00
2013-3-23,72,61,46,42,20,-100,61,29,6,30.06,29.93,10,2,20,0.00
2013-3-24,74,58,39,22,11,4,35,18,7,30.07,29.92,6,2,9,0.00
2013-3-25,78,61,41,27,16,-100,39,21,10,30.09,29.97,5,2,9,0.00
2013-3-26,85,66,48,30,14,-100,39,20,6,30.09,29.92,6,2,10,0.00
2013-3-27,86,68,49,32,20,-100,37,19,8,30.12,29.99,9,3,13,0.00
2013-3-28,84,68,51,35,18,-100,32,19,10,30.18,30.04,7,2,11,0.00
2013-3-29,85,68,50,34,22,-100,40,20,8,30.24,30.08,6,2,11,0.00
2013-3-30,84,67,54,31,22,-100,37,22,11,30.20,29.97,6,1,9,0.00
2013-3-31,84,67,48,37,25,-100,47,26,12,30.19,29.93,6,2,9,0.00
2013-4-1,81,67,49,39,22,-100,44,24,16,30.16,29.91,6,2,8,0.00
2013-4-2,78,63,45,33,17,-100,43,23,12,30.09,29.92,8,2,10,0.00
2013-4-3,81,66,47,36,17,-100,45,24,13,30.16,29.97,5,1,8,0.00
2013-4-4,89,70,49,37,24,-100,46,23,7,30.21,29.98,4,1,8,0.00
2013-4-5,86,72,55,37,26,-100,39,21,12,30.16,29.90,6,2,9,0.00
2013-4-6,85,70,50,35,16,-100,41,22,12,30.16,29.86,5,1,8,0.00
2013-4-7,85,70,51,40,26,-100,49,26,12,30.08,29.78,5,1,8,0.00
2013-4-8,82,69,48,40,30,-100,74,30,16,29.94,29.47,14,6,19,0.15
2013-4-9,65,55,45,41,33,23,81,48,23,29.94,29.73,7,3,10,0.18
2013-4-10,69,57,40,38,28,24,68,35,21,30.05,29.91,5,1,9,0.01
2013-4-11,79,61,41,38,24,-100,66,34,15,30.05,29.80,5,1,7,0.00
2013-4-12,78,63,47,35,24,-100,47,30,15,29.98,29.78,3,0,7,0.00
2013-4-13,84,68,48,39,23,-100,47,24,11,30.03,29.79,5,2,7,0.00
2013-4-14,85,72,53,37,26,-100,37,22,12,29.97,29.72,7,3,11,0.00
2013-4-15,87,74,62,36,25,-100,32,21,12,29.96,29.73,9,5,16,0.00
2013-4-16,84,72,59,38,20,-100,37,21,12,30.00,29.74,9,5,14,0.00
2013-4-17,67,58,46,42,19,-100,61,29,16,30.04,29.91,6,2,10,0.00
2013-4-18,69,57,42,19,7,-100,33,18,10,30.16,30.02,5,2,8,0.00
2013-4-19,80,64,41,21,7,-100,24,12,5,30.23,30.00,5,1,6,0.00
2013-4-20,85,66,42,27,14,9,28,16,6,30.13,29.98,5,1,9,0.00
2013-4-21,89,71,49,31,16,-100,34,16,7,30.22,29.97,4,1,7,0.00
2013-4-22,91,74,51,32,19,10,33,15,5,30.18,29.94,6,1,9,0.00
2013-4-23,88,74,52,30,15,-100,31,15,8,30.08,29.86,7,2,7,0.00
2013-4-24,91,75,54,37,25,14,38,18,6,30.12,29.99,5,2,9,0.00
2013-4-25,84,71,54,31,26,16,30,20,8,30.16,30.05,10,3,14,0.00
2013-4-26,88,69,48,39,15,-100,49,23,11,30.24,30.06,4,1,8,0.00
2013-4-27,91,74,53,37,17,-100,38,17,8,30.25,29.95,5,1,8,0.00
2013-4-28,95,76,54,34,17,-100,30,14,5,30.15,29.95,5,1,9,0.00
2013-4-29,97,78,55,37,10,-100,25,11,5,30.08,29.84,6,1,9,0.00
2013-4-30,97,80,56,37,17,-100,29,12,6,30.07,29.80,6,2,11,0.00
2013-5-1,90,75,55,30,11,-100,29,13,5,30.19,29.85,5,2,10,0.00
2013-5-2,90,76,64,25,13,-100,23,10,6,30.26,30.03,7,3,12,0.00
2013-5-3,89,76,50,30,10,-100,34,11,5,30.22,29.85,4,1,6,0.00
2013-5-4,93,76,55,32,17,-100,27,13,6,30.06,29.83,6,2,10,0.00
2013-5-5,91,78,68,39,23,-100,32,15,8,30.12,29.86,7,4,13,0.00
2013-5-6,85,71,55,52,42,30,82,40,20,30.16,30.02,5,2,9,0.03
2013-5-7,84,70,53,43,32,-100,48,30,11,30.16,29.91,6,2,11,0.00
2013-5-8,81,69,54,46,32,-100,55,34,18,30.18,29.95,4,1,6,0.00
2013-5-9,84,71,52,46,29,-100,56,28,11,30.15,29.91,4,1,7,0.00
2013-5-10,85,68,51,43,19,-100,47,26,15,30.20,29.95,5,1,7,0.00
2013-5-11,86,73,54,43,25,-100,46,24,15,30.27,30.04,5,1,9,0.00
2013-5-12,91,79,61,40,32,-100,37,20,12,30.34,30.13,5,2,10,0.00
2013-5-13,97,82,60,39,27,18,31,15,7,30.31,30.11,6,2,9,0.00
2013-5-14,98,85,69,38,16,-100,23,12,8,30.25,29.92,5,2,9,0.00
2013-5-15,98,82,60,44,26,-100,40,18,10,30.26,29.94,6,2,9,0.00
2013-5-16,98,77,58,39,13,-100,37,16,6,30.20,29.90,5,2,9,0.00
2013-5-17,95,79,59,40,14,-100,35,15,6,30.15,29.90,8,2,11,0.00
2013-5-18,91,77,57,39,26,-100,34,18,8,30.17,29.92,5,2,8,0.00
2013-5-19,92,77,57,47,27,-100,52,23,12,30.16,29.84,4,1,7,0.00
2013-5-20,93,77,58,45,30,20,43,20,10,30.14,29.91,7,2,11,0.00
2013-5-21,96,78,54,33,12,-100,28,12,5,30.16,29.83,4,1,7,0.00
2013-5-22,99,80,56,34,18,-100,32,13,5,30.09,29.82,6,2,10,0.00
2013-5-23,99,83,62,38,23,-100,31,14,6,30.11,29.82,6,2,10,0.00
2013-5-24,98,80,59,42,24,-100,34,16,5,30.19,29.90,6,2,11,0.00
2013-5-25,99,82,59,41,24,4,37,15,3,30.22,30.05,6,2,11,0.00
2013-5-26,96,78,55,35,11,-100,30,12,3,30.21,29.95,7,1,9,0.00
2013-5-27,97,78,55,30,14,-100,28,12,3,30.12,29.83,5,1,8,0.00
2013-5-28,97,78,55,36,22,-100,34,17,6,30.02,29.73,5,2,9,0.00
2013-5-29,94,79,59,45,31,-100,36,21,12,30.03,29.74,4,1,9,0.00
2013-5-30,97,82,62,52,35,-100,50,26,12,30.13,29.84,5,2,9,0.00
2013-5-31,99,84,66,59,32,-100,57,26,12,30.19,29.85,4,1,6,0.00
2013-6-1,106,87,67,50,33,-100,36,19,7,30.16,29.82,4,1,7,0.00
2013-6-2,106,89,67,49,32,-100,34,17,8,30.15,29.81,6,2,9,0.00
2013-6-3,103,86,64,42,28,16,36,15,5,30.17,29.99,6,2,9,0.00
2013-6-4,103,87,66,44,25,-100,30,15,7,30.18,29.87,5,2,9,0.00
2013-6-5,104,85,62,40,25,-100,30,14,5,30.21,29.91,4,1,7,0.00
2013-6-6,105,88,62,36,20,-100,27,12,6,30.14,29.85,4,1,7,0.00
2013-6-7,108,89,65,38,18,-100,29,12,6,30.14,29.83,4,1,9,0.00
2013-6-8,105,89,65,45,23,-100,31,12,5,30.15,29.80,4,1,7,0.00
2013-6-9,104,88,67,44,24,-100,31,13,3,30.24,29.90,4,1,6,0.00
2013-6-10,107,90,67,39,17,-100,23,10,4,30.22,29.88,4,1,7,0.00
2013-6-11,109,91,65,37,12,-100,26,9,3,30.24,29.88,5,1,8,0.00
2013-6-12,108,91,72,42,30,26,21,12,6,30.25,30.12,6,2,9,0.00
2013-6-13,104,89,70,48,38,33,33,18,11,30.27,30.08,5,1,7,0.00
2013-6-15,105,98,82,54,17,-100,25,15,16,30.20,29.86,5,2,9,0.00
2013-6-16,106,88,69,50,37,-100,35,20,8,30.27,29.93,5,1,8,0.00
2013-6-17,106,88,66,42,29,23,26,14,7,30.26,30.05,4,1,9,0.00
2013-6-18,107,85,64,35,7,-100,26,11,1,30.14,29.87,7,2,9,0.00
2013-6-19,89,65,63,30,-5,-100,18,13,12,30.10,29.81,1,0,1,0.00
2013-6-20,103,98,87,33,16,6,10,5,3,30.14,29.99,5,3,9,0.00
2013-6-21,105,102,98,23,20,18,6,6,5,30.09,30.05,4,2,8,0.00
2013-6-22,104,98,79,25,17,6,13,6,3,30.11,29.98,7,3,9,0.00
2013-6-23,104,97,65,32,21,7,27,8,3,30.09,29.96,7,4,12,0.00
2013-6-29,112,101,91,46,28,-100,18,12,9,30.20,29.84,6,2,8,0.00
2013-6-30,112,96,83,54,38,-100,33,19,11,30.26,29.81,7,2,15,0.00
2013-7-1,107,91,78,57,49,-100,41,29,14,30.23,29.82,7,1,10,0.00
2013-7-2,102,90,73,59,55,50,59,33,20,30.32,30.10,14,3,22,0.06
2013-7-3,107,91,72,56,22,-100,50,23,17,30.17,29.73,7,2,9,0.01
2013-7-4,106,93,78,59,43,-100,42,25,17,30.13,29.75,5,2,10,0.00
2013-7-5,100,85,78,65,60,53,59,44,26,30.14,29.98,4,1,6,0.01
2013-7-6,106,87,72,62,56,-100,61,42,19,30.11,29.73,4,1,7,0.01
2013-7-7,109,88,77,67,50,-100,63,39,17,30.14,29.74,5,1,8,0.79
2013-7-8,103,87,76,66,58,-100,68,42,24,30.22,30.07,7,1,10,0.05
2013-7-9,98,88,78,67,63,58,70,45,31,30.29,30.13,5,2,9,0.00
2013-7-10,100,81,75,71,63,-100,78,60,31,30.25,30.12,5,1,7,0.24
2013-7-11,93,81,73,70,67,64,85,65,43,30.22,30.09,3,1,7,0.02
2013-7-12,92,81,74,68,65,63,81,60,42,30.19,30.08,3,1,11,0.42
2013-7-13,99,86,72,68,62,59,78,50,29,30.19,30.06,5,1,9,0.42
2013-7-14,99,89,76,67,62,59,64,43,29,30.19,30.04,5,1,7,0.00
2013-7-15,104,87,75,67,62,57,66,47,23,30.14,29.98,6,1,10,1.41
2013-7-16,92,80,70,71,66,62,87,64,44,30.23,30.10,3,1,7,1.62
2013-7-17,76,75,73,68,66,64,80,75,67,30.22,30.18,1,0,2,0.01
2013-7-18,97,87,74,61,57,52,64,39,23,30.22,30.06,4,1,6,0.00
2013-7-19,96,85,76,66,61,58,62,46,31,30.19,30.03,4,1,6,0.00
2013-7-20,93,79,73,70,65,-100,77,64,42,30.14,30.00,5,1,9,0.03
2013-7-21,91,82,75,70,67,65,72,60,42,30.19,30.07,7,2,9,0.02
2013-7-22,91,80,71,67,64,60,80,61,43,30.20,30.11,4,1,8,0.02
2013-7-23,96,83,71,66,62,59,74,51,32,30.23,30.09,4,1,7,0.00
2013-7-24,98,85,75,65,62,59,62,49,32,30.19,30.07,3,1,7,0.00
2013-7-30,100,91,85,53,52,50,33,27,20,30.02,29.96,5,1,5,0.00
2013-7-31,105,88,75,61,56,53,51,36,20,30.29,29.93,4,1,8,0.00
2013-8-1,91,83,75,65,60,55,59,47,39,30.23,29.90,3,0,4,0.00
2013-8-2,95,83,76,66,62,59,60,51,36,30.16,29.88,3,0,5,0.00
2013-8-3,102,88,72,63,58,54,68,41,24,30.23,29.87,5,1,9,2.45
2013-8-4,97,86,76,64,58,54,52,41,27,30.23,29.88,2,0,5,2.45
2013-8-5,95,81,72,64,56,53,74,44,29,30.18,29.88,5,1,7,0.04
2013-8-6,83,76,69,66,62,57,84,63,46,30.20,29.93,6,1,7,3.95
2013-8-7,95,81,67,64,55,49,73,45,23,30.19,29.89,4,1,7,0.01
2013-8-8,100,83,66,56,45,-100,60,34,15,30.16,29.82,4,1,6,0.01
2013-8-9,104,88,64,49,39,-100,45,23,14,30.18,29.82,7,1,10,0.00
2013-8-10,102,87,72,48,41,38,42,22,12,30.19,29.86,6,1,7,3.91
2013-8-11,99,84,67,59,50,39,45,32,22,30.19,29.79,3,1,6,3.91
2013-8-12,106,90,68,58,48,34,62,27,13,30.13,29.77,5,1,8,0.00
2013-8-13,105,86,67,45,36,-100,39,20,10,30.09,29.71,6,1,7,0.00
2013-8-14,107,93,73,56,45,-100,39,22,11,29.95,29.57,7,2,11,3.91
2013-8-15,105,80,74,61,35,-100,56,34,19,29.97,29.54,6,1,6,3.94
2013-8-16,107,86,72,67,52,-100,69,38,17,29.95,29.54,4,1,9,0.12
2013-8-17,107,86,71,70,58,-100,80,47,19,29.92,29.51,6,1,8,0.18
2013-8-18,108,88,79,63,53,-100,53,34,16,29.88,29.57,7,2,10,0.05
2013-8-19,105,85,77,61,44,-100,48,31,18,29.92,29.52,3,1,6,0.00
2013-8-20,101,85,78,61,56,-100,54,39,24,29.90,29.53,5,1,8,0.00
2013-8-21,95,84,76,62,58,55,57,43,27,29.88,29.55,4,1,7,0.00
2013-8-22,101,84,73,62,58,54,69,43,24,29.90,29.49,5,1,14,0.01
2013-8-23,96,77,70,64,60,57,74,58,27,29.82,29.51,6,1,9,0.13
2013-8-24,92,79,70,66,60,-100,79,55,36,29.84,29.53,3,1,8,0.18
2013-8-25,93,78,71,70,67,65,84,72,42,29.91,29.59,5,0,6,4.87
2013-8-26,97,79,72,71,68,64,88,71,39,29.87,29.53,4,1,8,0.20
2013-8-27,99,77,66,69,64,55,88,69,24,29.80,29.53,3,1,7,0.18
2013-8-28,94,86,75,66,63,61,68,49,35,29.83,29.52,2,0,9,0.01
2013-8-29,90,77,71,70,67,63,86,72,50,29.95,29.66,7,0,7,0.87
2013-8-30,94,78,72,71,68,63,85,72,44,29.92,29.65,9,0,9,0.01
2013-8-31,94,82,71,69,63,-100,81,57,34,29.91,29.64,4,1,7,0.01
2013-9-1,100,85,70,67,62,59,77,50,30,29.86,29.50,3,1,7,0.00
2013-9-2,95,83,73,68,62,59,68,51,33,29.88,29.50,5,1,6,0.00
2013-9-3,98,82,71,63,59,52,65,47,24,29.88,29.55,4,1,7,0.00
2013-9-4,100,86,68,61,47,-100,69,35,19,29.87,29.54,5,1,9,0.00
2013-9-5,103,87,70,54,38,-100,51,28,18,29.89,29.54,6,1,7,0.00
2013-9-6,100,82,72,67,57,51,65,46,23,29.92,29.73,3,1,5,0.09
2013-9-7,89,78,69,65,60,-100,81,58,39,29.91,29.75,3,1,5,0.24
2013-9-8,85,76,69,69,66,62,87,73,53,29.80,29.48,3,1,6,1.86
2013-9-9,83,75,70,69,66,63,87,75,54,29.72,29.43,3,0,4,0.10
2013-9-10,87,75,62,66,61,57,89,63,40,29.81,29.49,4,1,8,0.13
2013-9-11,88,77,63,61,56,52,83,53,29,29.87,29.56,4,1,7,6.44
2013-9-12,94,80,63,61,55,50,76,45,26,29.80,29.45,5,1,7,1.28
2013-9-13,96,80,65,62,58,53,74,50,29,29.73,29.36,1,0,3,6.44
2013-9-14,99,83,67,63,54,-100,75,42,20,29.69,29.35,1,1,1,0.00
2013-9-15,99,84,67,58,54,52,70,40,22,29.74,29.43,74,16,74,6.44
2013-9-16,78,75,72,55,54,53,56,49,44,29.74,29.48,74,67,74,6.44
2013-9-21,96,85,77,64,52,-100,64,37,23,29.81,29.50,8,2,16,0.02
2013-9-22,88,75,63,69,58,41,82,58,27,29.85,29.51,9,2,20,0.02
2013-9-23,87,71,52,47,41,33,77,38,20,29.98,29.69,3,1,10,0.00
2013-9-24,94,77,56,45,41,35,63,32,13,30.04,29.73,5,2,14,0.00
2013-9-25,93,78,59,46,34,23,55,25,11,29.91,29.58,7,3,17,0.00
2013-9-26,90,80,63,55,39,24,53,25,16,29.83,29.52,12,4,23,0.00
2013-9-27,79,70,56,56,43,27,60,39,20,30.00,29.64,5,2,14,0.00
2013-9-28,85,69,49,45,34,-100,50,30,22,30.10,29.88,4,1,12,0.00
2013-9-29,89,73,54,44,39,33,59,32,19,30.13,29.87,5,1,12,0.00
2013-9-30,89,73,53,41,36,25,58,31,11,30.05,29.79,5,2,12,0.00
2013-10-1,87,73,64,39,37,34,39,28,16,29.98,29.80,3,0,6,0.00
2013-10-2,88,72,55,47,42,38,60,37,21,30.03,29.75,5,2,14,0.00
2013-10-3,89,74,58,54,44,31,67,38,15,29.93,29.63,7,3,18,0.00
2013-10-4,83,70,53,45,39,28,63,34,21,30.04,29.73,5,2,12,0.00
2013-10-5,80,69,58,28,19,10,31,15,8,30.15,29.93,7,4,16,0.00
2013-10-6,87,73,47,28,23,20,39,17,9,30.16,29.94,5,1,15,0.00
2013-10-7,91,74,52,36,29,22,33,20,12,30.06,29.82,7,2,16,0.00
2013-10-8,87,72,55,37,32,27,41,25,14,29.97,29.70,6,2,17,0.00
2013-10-9,84,76,65,49,39,30,53,27,18,29.85,29.56,12,7,28,0.00
2013-10-10,66,59,49,51,46,42,78,63,45,29.98,29.62,9,3,21,0.00
2013-10-11,74,59,44,44,40,36,83,53,30,30.02,29.88,3,1,9,0.00
2013-10-12,83,63,46,40,35,-100,66,40,17,30.00,29.80,5,2,14,0.00
2013-10-13,85,68,50,47,39,34,62,37,16,30.02,29.81,8,3,20,0.00
2013-10-14,80,65,48,42,37,32,77,40,18,30.08,29.86,5,1,13,0.00
2013-10-15,79,64,49,44,33,28,53,34,17,29.99,29.81,6,2,14,0.00
2013-10-16,77,60,44,29,24,17,51,30,11,30.09,29.92,5,1,9,0.00
2013-10-17,79,59,41,27,23,20,49,29,12,30.08,29.88,3,1,9,0.00
2013-10-18,81,61,43,27,23,19,45,26,10,30.04,29.90,5,2,12,0.00
2013-10-19,84,62,45,24,17,-100,35,21,6,30.08,29.88,4,1,8,0.00
2013-10-20,83,61,42,22,18,15,39,22,9,30.01,29.82,5,1,12,0.00
2013-10-21,83,63,44,26,20,15,40,22,8,30.04,29.89,5,1,10,0.00
2013-10-22,87,67,46,26,20,13,35,20,7,30.09,29.87,3,1,9,0.00
2013-10-23,90,74,51,33,27,22,38,20,9,30.00,29.78,5,2,15,0.00
2013-10-24,88,70,51,35,29,25,41,24,12,30.01,29.79,6,2,16,0.00
2013-10-25,84,71,48,31,29,26,45,24,14,30.11,29.93,5,2,12,0.00
2013-10-26,85,65,48,35,28,-100,50,28,11,30.13,29.94,4,1,9,0.00
2013-10-27,86,69,53,35,30,26,44,25,12,30.03,29.72,6,2,14,0.00
2013-10-28,79,68,52,35,30,-100,48,27,14,29.93,29.74,11,5,25,0.00
2013-10-29,78,68,50,40,35,30,61,32,17,29.96,29.72,12,6,26,0.00
2013-10-30,67,54,42,42,34,27,76,50,28,30.06,29.83,6,2,12,0.00
2013-10-31,73,54,37,27,24,17,60,36,13,30.12,30.00,5,1,10,0.00
2013-11-1,78,58,40,28,23,19,50,29,12,30.17,30.01,5,2,12,0.00
2013-11-2,85,65,45,44,19,-100,46,20,7,30.04,29.83,7,2,15,0.00
2013-11-3,79,66,52,48,43,37,74,45,27,29.98,29.67,5,2,12,0.00
2013-11-4,77,61,47,57,43,36,88,55,27,29.87,29.65,8,2,17,1.90
2013-11-5,68,58,47,49,45,33,92,63,39,30.15,29.80,5,2,12,1.14
2013-11-6,73,59,43,33,24,16,44,27,16,30.26,30.10,6,2,14,0.04
2013-11-7,80,70,42,30,21,12,41,18,8,30.20,30.03,4,2,12,0.00
2013-11-8,80,63,46,38,33,28,58,35,19,30.11,29.91,4,1,9,0.00
2013-11-9,79,62,46,40,34,-100,64,40,22,30.14,29.97,3,1,9,0.00
2013-11-10,83,65,47,40,36,33,62,38,19,30.16,29.96,5,1,10,0.00
2013-11-11,86,66,49,40,37,34,60,38,18,30.12,29.91,4,1,10,0.00
2013-11-12,86,71,54,44,40,36,51,33,21,30.21,29.99,6,1,12,0.00
2013-11-13,79,69,56,46,44,41,65,41,30,30.15,29.91,4,2,12,0.00
2013-11-14,79,63,48,45,41,37,76,47,26,30.05,29.81,3,1,8,0.00
2013-11-15,73,65,49,53,46,36,71,50,34,29.88,29.57,9,5,23,0.00
2013-11-16,71,61,53,53,45,-100,88,59,35,29.93,29.63,7,3,17,0.00
2013-11-17,72,60,49,50,45,41,87,60,37,30.07,29.86,5,1,13,0.00
2013-11-18,76,61,48,47,44,39,76,55,34,30.11,29.92,5,1,10,0.00
2013-11-19,76,59,45,45,40,30,77,53,19,30.04,29.81,6,1,12,0.00
2013-11-20,71,59,46,43,40,37,74,51,30,29.92,29.78,7,2,13,0.00
2013-11-21,71,60,50,54,44,36,90,58,31,29.96,29.80,7,2,15,0.90
2013-11-22,66,53,46,56,50,44,96,89,60,29.97,29.73,9,3,22,1.06
2013-11-23,54,47,46,48,44,-100,97,92,77,30.05,29.95,2,1,6,1.42
2013-11-24,58,47,40,45,42,36,96,82,58,30.14,30.03,5,2,11,0.02
2013-11-25,59,46,35,40,37,33,95,75,43,30.22,30.10,5,1,11,0.00
2013-11-26,65,53,38,41,37,33,92,60,30,30.25,30.13,4,1,10,0.00
2013-11-27,63,51,42,38,34,29,78,55,27,30.12,29.99,3,1,7,0.00
2013-11-28,70,55,37,38,35,31,80,51,27,30.11,30.00,5,1,15,0.00
2013-11-29,71,55,43,44,40,36,84,59,30,30.19,30.08,3,1,9,0.00
2013-11-30,69,54,43,48,42,-100,88,69,39,30.18,30.07,2,1,4,0.00
2013-12-1,72,55,45,48,44,36,89,70,28,30.22,30.12,3,1,6,0.00
2013-12-2,70,53,38,44,40,34,90,65,27,30.16,29.93,3,1,10,0.00
2013-12-3,70,56,42,42,36,22,83,52,17,29.94,29.74,5,2,14,0.00
2013-12-4,65,57,45,46,42,32,95,59,36,29.91,29.74,9,4,23,0.33
2013-12-5,48,43,32,44,36,28,95,79,49,30.06,29.87,3,1,8,0.49
2013-12-6,50,38,28,29,26,22,91,65,36,30.15,30.05,3,1,7,0.01
2013-12-7,55,40,28,34,25,-100,92,62,22,30.06,29.95,5,2,13,0.01
2013-12-8,52,47,41,41,37,31,78,68,62,30.09,29.99,4,2,13,0.00
2013-12-9,52,41,29,33,24,15,83,53,24,30.26,30.05,3,1,9,0.00
2013-12-10,57,41,27,27,22,16,78,49,20,30.25,30.08,5,1,10,0.00
2013-12-11,68,53,35,38,30,23,70,44,27,30.19,30.10,5,2,11,0.00
2013-12-12,69,57,41,43,39,34,81,51,37,30.17,30.05,8,2,14,0.00
2013-12-13,60,46,36,36,34,31,86,64,38,30.16,30.07,4,1,9,0.00
2013-12-14,61,46,32,33,28,-100,86,56,28,30.27,30.15,5,1,14,0.00
2013-12-15,66,49,33,31,27,19,77,46,16,30.29,30.17,2,1,6,0.00
2013-12-16,73,61,40,32,30,26,63,33,18,30.23,30.14,2,1,5,0.00
2013-12-17,79,65,43,36,30,25,56,30,14,30.24,30.10,3,1,8,0.00
2013-12-18,76,60,45,37,31,26,55,36,17,30.10,29.87,2,1,4,0.00
2013-12-19,68,60,50,41,29,24,70,32,19,29.87,29.69,8,5,20,0.00
2013-12-20,52,45,42,43,41,39,93,84,68,29.81,29.66,6,2,15,0.69
2013-12-21,50,45,41,42,38,-100,94,80,61,30.03,29.80,6,2,15,0.09
2013-12-22,56,44,34,41,36,32,95,76,46,30.26,30.03,3,1,7,0.00
2013-12-23,62,45,33,38,34,30,94,69,31,30.32,30.24,2,1,5,0.00
2013-12-24,65,52,34,35,30,25,79,47,23,30.22,30.11,4,1,8,0.00
2013-12-25,65,51,35,37,31,28,80,48,32,30.24,30.14,3,1,7,0.00
2013-12-26,64,57,42,32,29,25,65,35,23,30.21,30.11,2,1,6,0.00
2013-12-27,66,52,35,31,26,21,70,41,18,30.20,30.10,2,1,6,0.00
2013-12-28,62,48,34,32,25,-100,68,43,21,30.10,29.95,2,1,5,0.00
2013-12-29,63,50,35,33,29,25,79,49,24,30.12,29.95,4,2,10,0.00
2013-12-30,65,47,33,33,28,24,71,49,23,30.26,30.12,3,1,7,0.00
2013-12-31,69,52,35,31,26,22,66,42,17,30.23,30.09,2,1,6,0.00
2014-1-1,68,50,36,35,29,26,70,50,23,30.16,30.07,3,1,5,0.00
2014-1-2,73,54,37,31,29,25,76,45,17,30.17,30.05,2,1,4,0.00